Lawton, Oklahoma
Current Conditions -  °F | °C
As of 4:58 PM on Wednesday 22 Oct 2014 (Local Time) from KFSI Reporting Station
Light Rain Light Rain  
Wind Chill: 22°   Ceiling: Unl
Heat Index: 22°   Visibility: 10mi
Dew Point: 15°   Wind: 8mph
Humidity: 65%   Direction: 200°SSW
Pressure: 30.08"   Gusts: NA
Location:  34.61°N, 98.39°W
Report Text: KFSI 222158Z AUTO 20007KT 10SM -RA FEW049 SCT100 22/15 A3008 RMK AO2 RAB2143 SLP182 P0000 T02220153
Loading
Personal Weather Stations






























Interactive Weather Map New forecast layout! Learn more

10-Day Weather Forecast

Advertisements
Track Severe Weather on mobile